sensor_id;sensor_type;location;lat;lon;timestamp;temperature;humidity
21489;DHT22;10906;45.194;5.684;2024-03-22T06:43:26;13.20;98.40
21489;DHT22;10906;45.194;5.684;2024-03-22T12:52:45;26.00;54.10
21489;DHT22;10906;45.194;5.684;2024-03-22T12:59:57;26.60;52.50
21489;DHT22;10906;45.194;5.684;2024-03-22T13:03:04;27.20;49.60
21489;DHT22;10906;45.194;5.684;2024-03-22T13:09:36;26.70;51.00
21489;DHT22;10906;45.194;5.684;2024-03-22T13:12:36;26.90;51.10
21489;DHT22;10906;45.194;5.684;2024-03-22T13:15:24;26.90;50.80
21489;DHT22;10906;45.194;5.684;2024-03-22T13:18:24;26.90;51.20
21489;DHT22;10906;45.194;5.684;2024-03-22T13:21:20;26.90;50.30
21489;DHT22;10906;45.194;5.684;2024-03-22T13:24:18;27.00;51.00
21489;DHT22;10906;45.194;5.684;2024-03-22T13:27:15;27.20;50.90
21489;DHT22;10906;45.194;5.684;2024-03-22T13:30:25;27.20;50.20
21489;DHT22;10906;45.194;5.684;2024-03-22T13:33:43;27.40;51.00
21489;DHT22;10906;45.194;5.684;2024-03-22T13:36:34;27.50;50.10
21489;DHT22;10906;45.194;5.684;2024-03-22T13:39:56;27.70;49.60
21489;DHT22;10906;45.194;5.684;2024-03-22T13:42:45;27.70;48.80
21489;DHT22;10906;45.194;5.684;2024-03-22T13:45:30;27.70;49.40
21489;DHT22;10906;45.194;5.684;2024-03-22T13:48:21;27.90;48.90
21489;DHT22;10906;45.194;5.684;2024-03-22T13:51:09;28.20;48.80
21489;DHT22;10906;45.194;5.684;2024-03-22T13:53:54;28.30;47.80
21489;DHT22;10906;45.194;5.684;2024-03-22T13:56:39;28.30;47.10
21489;DHT22;10906;45.194;5.684;2024-03-22T13:59:27;28.30;47.20
21489;DHT22;10906;45.194;5.684;2024-03-22T14:02:11;28.30;46.30
21489;DHT22;10906;45.194;5.684;2024-03-22T14:04:59;28.60;46.00
21489;DHT22;10906;45.194;5.684;2024-03-22T14:07:43;28.60;45.40
21489;DHT22;10906;45.194;5.684;2024-03-22T14:10:28;28.60;46.00
21489;DHT22;10906;45.194;5.684;2024-03-22T14:13:15;28.70;46.60
21489;DHT22;10906;45.194;5.684;2024-03-22T14:16:02;28.80;47.20
21489;DHT22;10906;45.194;5.684;2024-03-22T14:18:47;28.90;47.40
21489;DHT22;10906;45.194;5.684;2024-03-22T14:21:32;28.90;47.50
21489;DHT22;10906;45.194;5.684;2024-03-22T14:24:17;28.60;47.60
21489;DHT22;10906;45.194;5.684;2024-03-22T14:27:01;29.00;47.20
21489;DHT22;10906;45.194;5.684;2024-03-22T14:29:46;29.00;47.10
21489;DHT22;10906;45.194;5.684;2024-03-22T14:32:34;29.10;46.80
21489;DHT22;10906;45.194;5.684;2024-03-22T14:35:18;29.20;47.10
21489;DHT22;10906;45.194;5.684;2024-03-22T14:38:03;29.10;47.00
21489;DHT22;10906;45.194;5.684;2024-03-22T14:40:48;29.10;46.80
21489;DHT22;10906;45.194;5.684;2024-03-22T14:43:33;29.00;46.60
21489;DHT22;10906;45.194;5.684;2024-03-22T14:46:18;28.90;46.40
21489;DHT22;10906;45.194;5.684;2024-03-22T14:49:07;28.70;46.30
21489;DHT22;10906;45.194;5.684;2024-03-22T14:51:52;28.60;46.40
21489;DHT22;10906;45.194;5.684;2024-03-22T14:54:46;28.70;46.70
21489;DHT22;10906;45.194;5.684;2024-03-22T14:57:33;28.70;46.70
21489;DHT22;10906;45.194;5.684;2024-03-22T15:00:19;28.50;46.50
21489;DHT22;10906;45.194;5.684;2024-03-22T15:03:04;28.50;46.40
21489;DHT22;10906;45.194;5.684;2024-03-22T15:05:53;28.50;46.50
21489;DHT22;10906;45.194;5.684;2024-03-22T15:08:38;28.50;46.60
21489;DHT22;10906;45.194;5.684;2024-03-22T15:11:30;28.60;47.00
21489;DHT22;10906;45.194;5.684;2024-03-22T15:14:14;28.60;46.40
21489;DHT22;10906;45.194;5.684;2024-03-22T15:16:59;28.60;46.40
21489;DHT22;10906;45.194;5.684;2024-03-22T15:19:44;28.60;46.00
21489;DHT22;10906;45.194;5.684;2024-03-22T15:22:29;28.50;45.80
21489;DHT22;10906;45.194;5.684;2024-03-22T15:25:13;28.70;46.40
21489;DHT22;10906;45.194;5.684;2024-03-22T15:27:58;28.70;45.80
21489;DHT22;10906;45.194;5.684;2024-03-22T15:30:43;28.70;45.70
21489;DHT22;10906;45.194;5.684;2024-03-22T15:33:28;28.70;45.70
21489;DHT22;10906;45.194;5.684;2024-03-22T15:36:13;28.70;45.80
21489;DHT22;10906;45.194;5.684;2024-03-22T15:38:57;28.70;46.20
21489;DHT22;10906;45.194;5.684;2024-03-22T15:41:42;28.70;46.30
21489;DHT22;10906;45.194;5.684;2024-03-22T15:44:27;28.60;46.00
21489;DHT22;10906;45.194;5.684;2024-03-22T15:47:11;28.60;45.80
21489;DHT22;10906;45.194;5.684;2024-03-22T15:49:56;28.50;45.90
21489;DHT22;10906;45.194;5.684;2024-03-22T15:52:40;28.50;46.20
21489;DHT22;10906;45.194;5.684;2024-03-22T15:55:25;28.50;46.40
21489;DHT22;10906;45.194;5.684;2024-03-22T15:58:10;28.60;46.50
21489;DHT22;10906;45.194;5.684;2024-03-22T16:00:54;28.60;46.40
21489;DHT22;10906;45.194;5.684;2024-03-22T16:03:39;28.30;46.50
21489;DHT22;10906;45.194;5.684;2024-03-22T16:06:23;28.00;46.90
21489;DHT22;10906;45.194;5.684;2024-03-22T16:09:08;27.90;47.40
21489;DHT22;10906;45.194;5.684;2024-03-22T16:11:57;27.60;47.50
21489;DHT22;10906;45.194;5.684;2024-03-22T16:14:42;27.30;48.10
21489;DHT22;10906;45.194;5.684;2024-03-22T16:17:26;26.70;48.30
21489;DHT22;10906;45.194;5.684;2024-03-22T16:20:11;26.40;48.60
21489;DHT22;10906;45.194;5.684;2024-03-22T16:22:56;25.70;49.20
21489;DHT22;10906;45.194;5.684;2024-03-22T16:25:42;24.90;49.80
21489;DHT22;10906;45.194;5.684;2024-03-22T16:28:26;24.50;50.50
21489;DHT22;10906;45.194;5.684;2024-03-22T16:31:11;24.10;50.50
21489;DHT22;10906;45.194;5.684;2024-03-22T16:33:55;23.80;51.10
21489;DHT22;10906;45.194;5.684;2024-03-22T16:36:39;23.50;51.40
21489;DHT22;10906;45.194;5.684;2024-03-22T16:39:24;23.30;51.70
21489;DHT22;10906;45.194;5.684;2024-03-22T16:42:09;23.10;51.90
21489;DHT22;10906;45.194;5.684;2024-03-22T16:44:53;22.90;52.10
21489;DHT22;10906;45.194;5.684;2024-03-22T16:47:38;22.80;52.30
21489;DHT22;10906;45.194;5.684;2024-03-22T16:50:22;22.70;52.40
21489;DHT22;10906;45.194;5.684;2024-03-22T16:53:07;22.50;52.50
21489;DHT22;10906;45.194;5.684;2024-03-22T16:55:52;22.40;52.70
21489;DHT22;10906;45.194;5.684;2024-03-22T16:58:36;22.30;53.20
21489;DHT22;10906;45.194;5.684;2024-03-22T17:01:21;22.10;53.50
21489;DHT22;10906;45.194;5.684;2024-03-22T17:04:05;22.00;53.90
21489;DHT22;10906;45.194;5.684;2024-03-22T17:06:50;22.00;54.40
21489;DHT22;10906;45.194;5.684;2024-03-22T17:09:34;21.90;54.90
21489;DHT22;10906;45.194;5.684;2024-03-22T17:12:20;21.80;55.60
21489;DHT22;10906;45.194;5.684;2024-03-22T17:15:24;21.70;55.60
21489;DHT22;10906;45.194;5.684;2024-03-22T17:18:09;21.60;55.60
21489;DHT22;10906;45.194;5.684;2024-03-22T17:20:55;21.50;55.90
21489;DHT22;10906;45.194;5.684;2024-03-22T17:23:40;21.50;56.20
21489;DHT22;10906;45.194;5.684;2024-03-22T17:26:24;21.40;56.30
21489;DHT22;10906;45.194;5.684;2024-03-22T17:29:09;21.40;56.50
21489;DHT22;10906;45.194;5.684;2024-03-22T17:31:57;21.30;56.40
21489;DHT22;10906;45.194;5.684;2024-03-22T17:34:42;21.30;56.60
21489;DHT22;10906;45.194;5.684;2024-03-22T17:37:26;21.20;57.00
21489;DHT22;10906;45.194;5.684;2024-03-22T17:40:11;21.20;57.00
21489;DHT22;10906;45.194;5.684;2024-03-22T17:43:05;21.20;56.90
21489;DHT22;10906;45.194;5.684;2024-03-22T17:48:18;21.00;56.70
21489;DHT22;10906;45.194;5.684;2024-03-22T17:51:03;21.10;56.90
21489;DHT22;10906;45.194;5.684;2024-03-22T17:53:47;21.00;57.40
21489;DHT22;10906;45.194;5.684;2024-03-22T17:56:32;20.90;57.20
21489;DHT22;10906;45.194;5.684;2024-03-22T17:59:17;20.90;57.20
21489;DHT22;10906;45.194;5.684;2024-03-22T18:02:01;20.90;56.80
21489;DHT22;10906;45.194;5.684;2024-03-22T18:04:45;20.90;56.60
21489;DHT22;10906;45.194;5.684;2024-03-22T18:07:30;20.90;57.00
21489;DHT22;10906;45.194;5.684;2024-03-22T18:10:27;20.80;57.50
21489;DHT22;10906;45.194;5.684;2024-03-22T18:13:17;20.80;57.20
21489;DHT22;10906;45.194;5.684;2024-03-22T18:16:02;20.70;57.60
21489;DHT22;10906;45.194;5.684;2024-03-22T18:18:51;20.60;57.60
21489;DHT22;10906;45.194;5.684;2024-03-22T18:21:37;20.60;57.60
21489;DHT22;10906;45.194;5.684;2024-03-22T18:24:24;20.50;57.80
21489;DHT22;10906;45.194;5.684;2024-03-22T18:27:09;20.40;57.80
21489;DHT22;10906;45.194;5.684;2024-03-22T18:29:53;20.30;58.20
21489;DHT22;10906;45.194;5.684;2024-03-22T18:32:38;20.20;57.70
21489;DHT22;10906;45.194;5.684;2024-03-22T18:35:32;20.20;58.20
21489;DHT22;10906;45.194;5.684;2024-03-22T18:38:17;20.50;58.70
21489;DHT22;10906;45.194;5.684;2024-03-22T18:41:02;20.10;58.40
21489;DHT22;10906;45.194;5.684;2024-03-22T18:43:47;20.10;58.70
21489;DHT22;10906;45.194;5.684;2024-03-22T18:46:32;20.00;59.00
21489;DHT22;10906;45.194;5.684;2024-03-22T18:49:16;19.80;59.00
21489;DHT22;10906;45.194;5.684;2024-03-22T18:52:01;19.70;59.20
21489;DHT22;10906;45.194;5.684;2024-03-22T18:54:55;19.60;59.30
21489;DHT22;10906;45.194;5.684;2024-03-22T18:57:42;19.50;59.70
21489;DHT22;10906;45.194;5.684;2024-03-22T19:00:27;19.50;59.90
21489;DHT22;10906;45.194;5.684;2024-03-22T19:03:11;19.30;60.00
21489;DHT22;10906;45.194;5.684;2024-03-22T19:05:55;19.30;60.50
21489;DHT22;10906;45.194;5.684;2024-03-22T19:08:40;19.30;61.60
21489;DHT22;10906;45.194;5.684;2024-03-22T19:11:25;19.30;62.20
21489;DHT22;10906;45.194;5.684;2024-03-22T19:14:09;19.10;61.90
21489;DHT22;10906;45.194;5.684;2024-03-22T19:17:16;19.10;62.70
21489;DHT22;10906;45.194;5.684;2024-03-22T19:20:00;19.20;63.30
21489;DHT22;10906;45.194;5.684;2024-03-22T19:22:44;18.80;63.10
21489;DHT22;10906;45.194;5.684;2024-03-22T19:25:31;18.70;63.30
21489;DHT22;10906;45.194;5.684;2024-03-22T19:28:16;18.60;62.50
21489;DHT22;10906;45.194;5.684;2024-03-22T19:31:00;18.60;63.30
21489;DHT22;10906;45.194;5.684;2024-03-22T19:33:44;18.50;63.40
21489;DHT22;10906;45.194;5.684;2024-03-22T19:36:32;18.40;63.90
21489;DHT22;10906;45.194;5.684;2024-03-22T19:39:16;18.20;64.00
21489;DHT22;10906;45.194;5.684;2024-03-22T19:42:03;18.40;64.80
21489;DHT22;10906;45.194;5.684;2024-03-22T19:45:52;18.30;63.60
21489;DHT22;10906;45.194;5.684;2024-03-22T19:54:18;18.10;63.90
21489;DHT22;10906;45.194;5.684;2024-03-22T19:57:04;18.00;63.10
21489;DHT22;10906;45.194;5.684;2024-03-22T19:59:49;17.80;64.30
21489;DHT22;10906;45.194;5.684;2024-03-22T20:02:35;17.80;65.40
21489;DHT22;10906;45.194;5.684;2024-03-22T20:05:22;17.60;65.10
21489;DHT22;10906;45.194;5.684;2024-03-22T20:08:06;17.60;66.00
21489;DHT22;10906;45.194;5.684;2024-03-22T20:10:51;17.40;65.30
21489;DHT22;10906;45.194;5.684;2024-03-22T20:13:35;17.30;66.10
21489;DHT22;10906;45.194;5.684;2024-03-22T20:16:20;17.30;67.60
21489;DHT22;10906;45.194;5.684;2024-03-22T20:19:06;17.30;67.70
21489;DHT22;10906;45.194;5.684;2024-03-22T20:21:52;17.30;66.90
21489;DHT22;10906;45.194;5.684;2024-03-22T20:24:37;17.30;67.50
21489;DHT22;10906;45.194;5.684;2024-03-22T20:27:26;17.10;67.30
21489;DHT22;10906;45.194;5.684;2024-03-22T20:30:12;16.90;67.70
21489;DHT22;10906;45.194;5.684;2024-03-22T20:32:57;16.80;68.00
21489;DHT22;10906;45.194;5.684;2024-03-22T20:35:41;16.80;68.50
